Time;durP1;ratioP1;P1;durP2;ratioP2;P2;SDS_P1;SDS_P2;PMS_P1;PMS_P2;Temp;Humidity;BMP_temperature;BMP_pressure;BME280_temperature;BME280_humidity;BME280_pressure;Samples;Min_cycle;Max_cycle;Signal;HPM_P1;HPM_P2
2019/07/19 00:02:28;;;;;;;5.2;3.6;;;;;;;15.75;61.78613;938.1772;;;;
2019/07/19 00:05:01;;;;;;;5.1;3.5;;;;;;;15.83;62.05176;938.1124;;;;
2019/07/19 00:07:29;;;;;;;4.3;3.6;;;;;;;15.94;61.91602;938.1127;;;;
2019/07/19 00:10:01;;;;;;;6.6;3.8;;;;;;;16.09;62.19336;938.0775;;;;
2019/07/19 00:12:29;;;;;;;4.6;3.7;;;;;;;16.07;62.06348;938.1227;;;;
2019/07/19 00:14:53;;;;;;;5.3;3.8;;;;;;;15.89;62.37305;938.1349;;;;
2019/07/19 00:17:21;;;;;;;5.5;3.8;;;;;;;15.85;62.71387;938.166;;;;
2019/07/19 00:19:45;;;;;;;7.8;3.9;;;;;;;15.82;62.81348;938.1389;;;;
2019/07/19 00:22:19;;;;;;;7.1;4;;;;;;;15.78;62.80762;938.1688;;;;
2019/07/19 00:24:43;;;;;;;6.7;4.1;;;;;;;15.83;62.9541;938.228;;;;
2019/07/19 00:27:09;;;;;;;6.1;4.4;;;;;;;15.83;63.28906;938.1766;;;;
2019/07/19 00:29:36;;;;;;;7.9;4.3;;;;;;;15.72;63.78027;938.2281;;;;
2019/07/19 00:32:00;;;;;;;5.4;4.2;;;;;;;15.57;64.11719;938.176;;;;
2019/07/19 00:34:27;;;;;;;5.3;4.4;;;;;;;15.48;64.32324;938.1214;;;;
2019/07/19 00:37:02;;;;;;;4.4;3.8;;;;;;;15.23;63.26953;938.1379;;;;
2019/07/19 00:39:30;;;;;;;5.2;3.8;;;;;;;15.28;64.70996;938.1231;;;;
2019/07/19 00:41:56;;;;;;;6.6;4.3;;;;;;;15.45;63.60254;938.1002;;;;
2019/07/19 00:44:21;;;;;;;6;4.3;;;;;;;15.59;63.14941;938.1351;;;;
2019/07/19 00:46:49;;;;;;;5.1;4;;;;;;;15.6;62.93164;938.1816;;;;
2019/07/19 00:49:20;;;;;;;7.5;4;;;;;;;15.2;64.5127;938.093;;;;
2019/07/19 00:51:51;;;;;;;4.5;3.9;;;;;;;15.24;64.15039;938.1531;;;;
2019/07/19 00:54:21;;;;;;;5.1;4.2;;;;;;;15.16;64.29883;938.111;;;;
2019/07/19 00:56:46;;;;;;;5.5;3.9;;;;;;;15.25;64.28906;938.165;;;;
2019/07/19 00:59:11;;;;;;;5.9;4.2;;;;;;;15.16;65.11816;938.1624;;;;
2019/07/19 01:01:39;;;;;;;7.1;4;;;;;;;15.11;64.93848;938.0825;;;;
2019/07/19 01:04:03;;;;;;;6.4;4.2;;;;;;;14.96;65.89551;938.1765;;;;
2019/07/19 01:06:28;;;;;;;6.3;4.1;;;;;;;14.95;66.24023;938.2287;;;;
2019/07/19 01:08:59;;;;;;;5.9;4.1;;;;;;;14.94;66.28516;938.2087;;;;
2019/07/19 01:11:32;;;;;;;6.7;4.1;;;;;;;15.33;65.01758;938.1555;;;;
2019/07/19 01:14:04;;;;;;;4.5;4;;;;;;;15.1;65.16602;938.1652;;;;
2019/07/19 01:16:31;;;;;;;6.3;4.1;;;;;;;15.18;64.87988;938.1085;;;;
2019/07/19 01:19:02;;;;;;;9.4;4.7;;;;;;;15.08;65.63672;938.2143;;;;
2019/07/19 01:21:29;;;;;;;5.6;4.2;;;;;;;15.23;65.07129;938.1459;;;;
2019/07/19 01:23:55;;;;;;;5;4.4;;;;;;;15.21;65.35645;938.1996;;;;
2019/07/19 01:26:31;;;;;;;7.3;4.4;;;;;;;15.37;64.5498;938.241;;;;
2019/07/19 01:28:52;;;;;;;7.4;4.5;;;;;;;15.51;64.58105;938.1782;;;;
2019/07/19 01:31:13;;;;;;;7.6;4.2;;;;;;;14.94;66.04297;938.2126;;;;
2019/07/19 01:33:46;;;;;;;4.7;4.1;;;;;;;15.02;66.05371;938.1995;;;;
2019/07/19 01:36:13;;;;;;;6.9;4.5;;;;;;;14.91;66.2002;938.2202;;;;
2019/07/19 01:38:39;;;;;;;5.4;4.4;;;;;;;15.01;66.13379;938.2562;;;;
2019/07/19 01:41:05;;;;;;;7;4.2;;;;;;;15.05;66.19824;938.2258;;;;
2019/07/19 01:43:29;;;;;;;6.5;4.3;;;;;;;14.84;66.58203;938.2791;;;;
2019/07/19 01:45:57;;;;;;;7.6;4.4;;;;;;;15.08;65.76367;938.159;;;;
2019/07/19 01:48:20;;;;;;;5.2;4.3;;;;;;;15.21;65.28906;938.2501;;;;
2019/07/19 01:50:49;;;;;;;5.2;4.3;;;;;;;15.18;65.19043;938.2031;;;;
2019/07/19 01:53:15;;;;;;;4.8;4.1;;;;;;;15.16;65.61426;938.2225;;;;
2019/07/19 01:55:41;;;;;;;6;4.2;;;;;;;15.3;64.62012;938.2488;;;;
2019/07/19 01:58:10;;;;;;;5.5;4;;;;;;;15.15;65.12793;938.2017;;;;
2019/07/19 02:00:37;;;;;;;7;3.9;;;;;;;15.08;65.51074;938.2095;;;;
2019/07/19 02:03:02;;;;;;;5.7;4;;;;;;;15.11;65.52637;938.2533;;;;
2019/07/19 02:05:33;;;;;;;7.2;4.3;;;;;;;15.32;64.58789;938.2045;;;;
2019/07/19 02:07:55;;;;;;;5.3;4.2;;;;;;;15.29;64.75684;938.2328;;;;
2019/07/19 02:10:28;;;;;;;5.9;4.2;;;;;;;14.96;65.95313;938.1252;;;;
2019/07/19 02:12:52;;;;;;;6;4.6;;;;;;;14.79;66.40039;938.2759;;;;
2019/07/19 02:15:25;;;;;;;5.4;4.3;;;;;;;14.85;66.73242;938.2438;;;;
2019/07/19 02:17:49;;;;;;;6.2;4.3;;;;;;;14.87;66.65625;938.2797;;;;
2019/07/19 02:20:22;;;;;;;6.2;4.4;;;;;;;14.71;66.79297;938.3278;;;;
2019/07/19 02:22:48;;;;;;;6.6;4.3;;;;;;;14.82;66.76172;938.3074;;;;
2019/07/19 02:25:12;;;;;;;6.4;4.3;;;;;;;14.64;66.82813;938.2842;;;;
2019/07/19 02:27:39;;;;;;;5.3;4.1;;;;;;;14.64;67.14941;938.2762;;;;
2019/07/19 02:30:12;;;;;;;5.1;4.2;;;;;;;14.58;67.3252;938.2394;;;;
2019/07/19 02:32:41;;;;;;;5.5;4.1;;;;;;;14.66;66.81934;938.3121;;;;
2019/07/19 02:34:58;;;;;;;4.8;4;;;;;;;14.68;66.85645;938.28;;;;
2019/07/19 02:37:29;;;;;;;6.3;3.8;;;;;;;14.56;66.1123;938.3141;;;;
2019/07/19 02:39:57;;;;;;;4.6;3.7;;;;;;;14.86;65.05078;938.3367;;;;
2019/07/19 02:42:24;;;;;;;5.3;4.3;;;;;;;15.05;65.43652;938.3372;;;;
2019/07/19 02:44:47;;;;;;;5.2;4.7;;;;;;;15.07;65.4043;938.3434;;;;
2019/07/19 02:47:15;;;;;;;6.8;5.1;;;;;;;15.09;64.75;938.3674;;;;
2019/07/19 02:49:40;;;;;;;7.9;5.1;;;;;;;15.17;66.6543;938.4261;;;;
2019/07/19 02:52:06;;;;;;;7.1;4.8;;;;;;;15.27;65.73535;938.432;;;;
2019/07/19 02:54:34;;;;;;;7;4.9;;;;;;;15.36;65.95703;938.4561;;;;
2019/07/19 02:56:59;;;;;;;7.9;5.1;;;;;;;15.3;66.45508;938.4373;;;;
2019/07/19 02:59:29;;;;;;;6.8;5;;;;;;;15.35;66.05859;938.4875;;;;
2019/07/19 03:01:53;;;;;;;6.6;5.3;;;;;;;15.32;66.00781;938.4228;;;;
2019/07/19 03:10:07;;;;;;;5.1;4.5;;;;;;;14.78;67.11426;938.4445;;;;
2019/07/19 03:12:34;;;;;;;6.9;4.8;;;;;;;14.86;66.93066;938.4177;;;;
2019/07/19 03:15:03;;;;;;;12.4;5.2;;;;;;;15.16;66.35254;938.4575;;;;
2019/07/19 03:17:29;;;;;;;6.1;4.9;;;;;;;15.21;66.29199;938.4089;;;;
2019/07/19 03:19:53;;;;;;;8.5;5;;;;;;;15.13;67.11133;938.4176;;;;
2019/07/19 03:22:19;;;;;;;7;4.6;;;;;;;15.11;66.18457;938.3728;;;;
2019/07/19 03:24:53;;;;;;;5.1;4.5;;;;;;;15.01;65.98438;938.4311;;;;
2019/07/19 03:27:11;;;;;;;4.7;4.2;;;;;;;15;66.19141;938.4833;;;;
2019/07/19 03:29:36;;;;;;;6;4.7;;;;;;;15.17;67.58887;938.4437;;;;
2019/07/19 03:32:11;;;;;;;7.6;4.8;;;;;;;15.19;68.27441;938.6378;;;;
2019/07/19 03:34:35;;;;;;;6.8;4.6;;;;;;;14.8;68.77832;938.7023;;;;
2019/07/19 03:37:02;;;;;;;5.2;4.4;;;;;;;15.01;67.69238;938.7558;;;;
2019/07/19 03:39:27;;;;;;;5.2;4.7;;;;;;;14.99;67.94336;938.7969;;;;
2019/07/19 03:41:51;;;;;;;4.7;4.2;;;;;;;14.96;66.66895;938.8052;;;;
2019/07/19 03:44:16;;;;;;;6.2;4.2;;;;;;;14.87;66.85059;938.7464;;;;
2019/07/19 03:46:42;;;;;;;7.3;4.5;;;;;;;15.06;66.34961;938.7766;;;;
2019/07/19 03:49:09;;;;;;;6.1;4.7;;;;;;;15.18;66.47266;938.827;;;;
2019/07/19 03:51:35;;;;;;;6.4;4.7;;;;;;;14.94;67.90039;938.7684;;;;
2019/07/19 03:54:02;;;;;;;5.4;4.6;;;;;;;15.01;67.71484;938.7775;;;;
2019/07/19 03:56:27;;;;;;;6.9;4.6;;;;;;;14.82;66.87891;938.6873;;;;
2019/07/19 03:58:50;;;;;;;6.6;4.7;;;;;;;14.9;67.77734;938.7775;;;;
2019/07/19 04:02:33;;;;;;;6.8;4.6;;;;;;;14.95;66.56348;938.7932;;;;
2019/07/19 04:04:59;;;;;;;7.6;4.5;;;;;;;14.73;67.24512;938.791;;;;
2019/07/19 04:07:33;;;;;;;5.3;4.7;;;;;;;14.91;66.47754;938.8063;;;;
2019/07/19 04:09:59;;;;;;;5.3;4.3;;;;;;;14.91;67.16895;938.7798;;;;
2019/07/19 04:12:23;;;;;;;7.5;4.6;;;;;;;15.18;66.02246;938.7668;;;;
2019/07/19 04:18:37;;;;;;;6.5;4.7;;;;;;;15.49;66.42676;938.7803;;;;
2019/07/19 04:20:53;;;;;;;6.9;4.8;;;;;;;15.22;65.55469;938.8142;;;;
2019/07/19 04:23:20;;;;;;;6.9;5;;;;;;;15.26;65.79199;938.8011;;;;
2019/07/19 04:25:46;;;;;;;5.5;4.9;;;;;;;15.16;66.0293;938.8297;;;;
2019/07/19 04:28:13;;;;;;;6;4.9;;;;;;;15.18;65.95313;938.8528;;;;
2019/07/19 04:30:43;;;;;;;5.5;4.5;;;;;;;15.26;65.84863;938.7033;;;;
2019/07/19 04:33:08;;;;;;;7.1;4.9;;;;;;;15.28;65.58691;938.829;;;;
2019/07/19 04:35:36;;;;;;;6.4;4.5;;;;;;;15.25;65.57031;938.8245;;;;
2019/07/19 04:38:05;;;;;;;6;4.3;;;;;;;15.26;65.73438;938.8139;;;;
2019/07/19 04:40:24;;;;;;;8.5;4.5;;;;;;;15.42;65.18164;938.7022;;;;
2019/07/19 04:42:50;;;;;;;8;4.8;;;;;;;15.58;64.55762;938.7136;;;;
2019/07/19 04:45:14;;;;;;;7.2;4.6;;;;;;;15.85;65.11719;938.6839;;;;
2019/07/19 04:47:46;;;;;;;7;4.7;;;;;;;15.99;64.18945;938.7402;;;;
2019/07/19 04:50:08;;;;;;;7.7;4.4;;;;;;;16.13;63.2627;938.7374;;;;
2019/07/19 04:52:38;;;;;;;6.3;4.6;;;;;;;16.2;63.12109;938.7254;;;;
2019/07/19 04:55:11;;;;;;;9;5.5;;;;;;;16;63.46387;938.6919;;;;
2019/07/19 04:57:36;;;;;;;7.9;5.2;;;;;;;15.91;63.37012;938.6936;;;;
2019/07/19 05:00:00;;;;;;;9.5;4.6;;;;;;;15.89;63.89746;938.7566;;;;
2019/07/19 05:02:28;;;;;;;5.4;4.4;;;;;;;16.01;63.54492;938.6653;;;;
2019/07/19 05:04:54;;;;;;;8.3;4.2;;;;;;;15.92;64.12109;938.7748;;;;
2019/07/19 05:07:22;;;;;;;6.2;4.3;;;;;;;15.95;64.41699;938.7447;;;;
2019/07/19 05:09:47;;;;;;;6.9;4.4;;;;;;;16.18;63.34961;938.7192;;;;
2019/07/19 05:12:11;;;;;;;8;4.2;;;;;;;16.21;63.27441;938.6979;;;;
2019/07/19 05:14:35;;;;;;;6.7;4.3;;;;;;;16.27;63.01563;938.7642;;;;
2019/07/19 05:16:59;;;;;;;6.1;4.2;;;;;;;16.54;62.2793;938.6985;;;;
2019/07/19 05:19:29;;;;;;;8.2;4.3;;;;;;;16.71;62.10645;938.7001;;;;
2019/07/19 05:21:53;;;;;;;6;4.5;;;;;;;16.85;61.64063;938.7307;;;;
2019/07/19 05:24:20;;;;;;;7.6;4.7;;;;;;;17.33;60.53711;938.7505;;;;
2019/07/19 05:26:43;;;;;;;6.3;4.7;;;;;;;17.74;59.88477;938.7615;;;;
2019/07/19 05:29:13;;;;;;;10;5.1;;;;;;;18.12;58.14844;938.6813;;;;
2019/07/19 05:31:39;;;;;;;7.1;4.1;;;;;;;18.69;56.84961;938.6412;;;;
2019/07/19 05:34:08;;;;;;;5.4;3.9;;;;;;;19.35;53.84766;938.6216;;;;
2019/07/19 05:36:41;;;;;;;4.7;3.5;;;;;;;19.67;52.35938;938.5767;;;;
2019/07/19 05:39:07;;;;;;;4.9;3.6;;;;;;;19.72;51.74707;938.5658;;;;
2019/07/19 05:41:31;;;;;;;6.9;3.5;;;;;;;19.95;51.47168;938.5568;;;;
2019/07/19 05:44:02;;;;;;;8.7;3.7;;;;;;;20.44;50.74512;938.4969;;;;
2019/07/19 05:46:28;;;;;;;6;3.6;;;;;;;21.35;48.91895;938.5303;;;;
2019/07/19 05:48:52;;;;;;;4.8;3.4;;;;;;;22.08;46.26855;938.5465;;;;
2019/07/19 05:51:18;;;;;;;8.1;3.9;;;;;;;22.45;45.34473;938.5641;;;;
2019/07/19 05:53:48;;;;;;;5.7;3.3;;;;;;;22.94;43.32715;938.552;;;;
2019/07/19 05:56:13;;;;;;;3.9;3.2;;;;;;;23.2;42.04883;938.5696;;;;
2019/07/19 05:58:42;;;;;;;6.1;3;;;;;;;23.48;40.96973;938.5731;;;;
2019/07/19 06:01:06;;;;;;;4.5;3.2;;;;;;;22.79;42.2793;938.5243;;;;
2019/07/19 06:03:31;;;;;;;6.7;3.5;;;;;;;22.32;43.94727;938.5353;;;;
2019/07/19 06:05:59;;;;;;;4.4;3.4;;;;;;;21.79;44.76172;938.5743;;;;
2019/07/19 06:08:27;;;;;;;6.6;3.3;;;;;;;21.34;46.02734;938.6091;;;;
2019/07/19 06:10:52;;;;;;;4.1;3.7;;;;;;;21.13;46.51953;938.5252;;;;
2019/07/19 06:13:20;;;;;;;7.5;3.7;;;;;;;20.92;47.84375;938.4673;;;;
2019/07/19 06:15:49;;;;;;;8.9;3.6;;;;;;;20.79;48.36621;938.6103;;;;
2019/07/19 06:18:11;;;;;;;4.8;3.4;;;;;;;20.8;49.13867;938.5435;;;;
2019/07/19 06:20:38;;;;;;;6.2;3.7;;;;;;;20.94;48.9668;938.5172;;;;
2019/07/19 06:23:05;;;;;;;6.5;4;;;;;;;21;49.04395;938.5128;;;;
2019/07/19 06:26:01;;;;;;;7.9;3.6;;;;;;;21.47;53.51953;938.5538;;;;
2019/07/19 06:28:10;;;;;;;6.6;3.8;;;;;;;22.13;51.2793;938.588;;;;
2019/07/19 06:34:17;;;;;;;4.9;3.7;;;;;;;23.28;42.96094;938.616;;;;
2019/07/19 06:36:38;;;;;;;7.5;3.8;;;;;;;23.06;42.69336;938.6245;;;;
2019/07/19 06:39:15;;;;;;;5.8;3.7;;;;;;;21.61;45.65723;938.5815;;;;
2019/07/19 06:41:47;;;;;;;6.1;3.7;;;;;;;21.88;46.48145;938.6138;;;;
2019/07/19 06:44:11;;;;;;;6.5;3.4;;;;;;;23.51;46.74609;938.6127;;;;
2019/07/19 06:47:00;;;;;;;5.9;3.6;;;;;;;23.82;41.38965;938.6142;;;;
2019/07/19 06:50:09;;;;;;;9;3.7;;;;;;;25.72;42.35645;938.5956;;;;
2019/07/19 06:52:43;;;;;;;8.5;4.3;;;;;;;26.26;36.50391;938.5991;;;;
2019/07/19 06:55:25;;;;;;;4.7;3.3;;;;;;;25.97;36.84668;938.5527;;;;
2019/07/19 06:58:15;;;;;;;5.1;3.1;;;;;;;24.7;39.60742;938.5809;;;;
2019/07/19 07:05:44;;;;;;;4.2;3.1;;;;;;;24.17;41.32617;938.5729;;;;
2019/07/19 07:08:11;;;;;;;5.5;3.3;;;;;;;23.9;41.03125;938.5953;;;;
2019/07/19 07:10:43;;;;;;;5.9;3.4;;;;;;;23.67;42.68164;938.5898;;;;
2019/07/19 07:13:06;;;;;;;8.8;4.1;;;;;;;23.73;43.36914;938.668;;;;
2019/07/19 07:15:35;;;;;;;4.9;3.4;;;;;;;23.22;42.27344;938.6364;;;;
2019/07/19 07:18:00;;;;;;;6.1;3.5;;;;;;;22.55;45.15527;938.6369;;;;
2019/07/19 07:20:34;;;;;;;6.3;3.5;;;;;;;22.96;45.51367;938.6657;;;;
2019/07/19 07:22:58;;;;;;;5.2;3.5;;;;;;;22.9;46.17676;938.6265;;;;
2019/07/19 07:25:26;;;;;;;4.9;3.5;;;;;;;23.38;47.62598;938.6094;;;;
2019/07/19 07:27:55;;;;;;;4.7;3.3;;;;;;;23.41;43.31445;938.6399;;;;
2019/07/19 07:30:26;;;;;;;4.2;3.2;;;;;;;23.49;46.3916;938.5889;;;;
2019/07/19 07:33:22;;;;;;;10;3.8;;;;;;;23.68;46.36426;938.6227;;;;
2019/07/19 07:39:35;;;;;;;6;3.6;;;;;;;23.73;45.59375;938.5237;;;;
2019/07/19 07:44:58;;;;;;;5.5;3.4;;;;;;;24.64;44.07031;938.5291;;;;
2019/07/19 07:47:31;;;;;;;6.8;3.4;;;;;;;26.12;39.47363;938.525;;;;
2019/07/19 07:50:17;;;;;;;4.4;2.9;;;;;;;27.73;34.84277;938.5128;;;;
2019/07/19 07:52:28;;;;;;;5.7;3.1;;;;;;;28.56;32.79102;938.4812;;;;
2019/07/19 07:55:11;;;;;;;3.9;3;;;;;;;28.3;35.7666;938.5203;;;;
2019/07/19 07:57:27;;;;;;;5.8;2.8;;;;;;;29.77;31.19727;938.4044;;;;
2019/07/19 08:15:03;;;;;;;7.9;2.7;;;;;;;32.3;29.70508;938.3101;;;;
2019/07/19 08:17:27;;;;;;;6.7;2.6;;;;;;;32.76;26.04883;938.3146;;;;
2019/07/19 08:19:54;;;;;;;8.1;2.9;;;;;;;32.15;28.61621;938.3373;;;;
2019/07/19 08:22:29;;;;;;;6.4;2.5;;;;;;;32.71;25.21777;938.3113;;;;
2019/07/19 08:25:01;;;;;;;5;2.7;;;;;;;32.99;25.00586;938.3783;;;;
2019/07/19 08:27:37;;;;;;;5.1;2.7;;;;;;;32.93;26.68359;938.3619;;;;
2019/07/19 08:29:58;;;;;;;6.7;2.7;;;;;;;33.96;25.99707;938.33;;;;
2019/07/19 08:32:33;;;;;;;5.3;2.8;;;;;;;33.59;24.59375;938.2703;;;;
2019/07/19 08:40:23;;;;;;;5.8;2.6;;;;;;;34.44;26.12207;938.2244;;;;
2019/07/19 08:42:56;;;;;;;5.5;2.4;;;;;;;34.16;24.7207;938.1283;;;;
2019/07/19 08:45:23;;;;;;;3.9;2.4;;;;;;;34.42;24.25293;938.2207;;;;
2019/07/19 08:47:50;;;;;;;7.4;2.5;;;;;;;34.49;23.79883;938.2117;;;;
2019/07/19 08:50:34;;;;;;;4.5;2.3;;;;;;;35.15;23.56738;938.2561;;;;
2019/07/19 08:53:10;;;;;;;6.8;2.8;;;;;;;35.62;23;938.2184;;;;
2019/07/19 08:55:41;;;;;;;5.8;2.6;;;;;;;35.04;24.68359;938.1577;;;;
2019/07/19 08:58:08;;;;;;;7.5;2.5;;;;;;;35.04;24.84082;938.1445;;;;
2019/07/19 09:00:40;;;;;;;5.9;2.4;;;;;;;34.71;25.17188;938.1295;;;;
2019/07/19 09:03:10;;;;;;;5.8;2.5;;;;;;;34.45;24.85742;938.1171;;;;
2019/07/19 09:05:41;;;;;;;6.7;2.3;;;;;;;34.54;23.27148;938.0465;;;;
2019/07/19 09:08:16;;;;;;;4.8;2.5;;;;;;;34.62;21.86426;938.0278;;;;
2019/07/19 09:10:48;;;;;;;4;2.5;;;;;;;33.95;25.75586;938.0538;;;;
2019/07/19 09:13:31;;;;;;;3;2.6;;;;;;;34.23;24.20605;938.0304;;;;
2019/07/19 09:15:45;;;;;;;7.3;2.8;;;;;;;33.75;24.87891;938.0156;;;;
2019/07/19 09:18:16;;;;;;;4.5;2.4;;;;;;;33.23;22.0498;937.9895;;;;
2019/07/19 09:20:37;;;;;;;4.6;2.7;;;;;;;32.86;23.92969;938.0011;;;;
2019/07/19 09:26:43;;;;;;;7.8;3;;;;;;;31.93;28.67383;937.9899;;;;
2019/07/19 09:29:10;;;;;;;5.4;2.9;;;;;;;32.29;28.60059;937.97;;;;
2019/07/19 09:31:35;;;;;;;8.9;2.5;;;;;;;31.97;25.74023;937.9038;;;;
2019/07/19 09:33:59;;;;;;;4.4;2.5;;;;;;;31.95;27.91992;937.9041;;;;
2019/07/19 09:36:34;;;;;;;4.8;2.7;;;;;;;31.77;29.87402;937.9133;;;;
2019/07/19 09:39:04;;;;;;;5;2.7;;;;;;;31.78;29.31152;937.9871;;;;
2019/07/19 09:41:30;;;;;;;3.6;2.7;;;;;;;32.13;29.00977;937.9289;;;;
2019/07/19 09:43:53;;;;;;;8.1;2.9;;;;;;;32.15;29.3584;937.9208;;;;
2019/07/19 09:46:19;;;;;;;5.1;2.9;;;;;;;32.08;29.8457;937.907;;;;
2019/07/19 09:48:50;;;;;;;4.5;2.8;;;;;;;32.4;28.41504;937.941;;;;
2019/07/19 09:51:15;;;;;;;5.6;3;;;;;;;32.14;30.76074;937.8734;;;;
2019/07/19 09:53:40;;;;;;;7.7;3.1;;;;;;;31.76;30.7832;937.8502;;;;
2019/07/19 09:56:13;;;;;;;8.4;3.2;;;;;;;31.68;30.87402;937.8374;;;;
2019/07/19 09:58:34;;;;;;;7.1;3.3;;;;;;;31.93;30.1709;937.8331;;;;
2019/07/19 10:01:00;;;;;;;5.1;3;;;;;;;32.06;30.46777;937.8702;;;;
2019/07/19 10:03:24;;;;;;;7.8;3.2;;;;;;;31.62;31.50391;937.9102;;;;
2019/07/19 10:05:56;;;;;;;7.9;3.5;;;;;;;32;33.65137;937.8641;;;;
2019/07/19 10:08:28;;;;;;;5;3;;;;;;;31.94;30.23242;937.7869;;;;
2019/07/19 10:10:56;;;;;;;5.9;3.2;;;;;;;31.95;29.76563;937.7986;;;;
2019/07/19 10:13:27;;;;;;;8.5;3.3;;;;;;;31.39;30.61426;937.863;;;;
2019/07/19 10:15:53;;;;;;;6.9;3.1;;;;;;;31.34;32.81348;937.7278;;;;
2019/07/19 10:18:21;;;;;;;8.2;3.4;;;;;;;31.93;31.89746;937.779;;;;
2019/07/19 10:20:55;;;;;;;7;3.3;;;;;;;32.21;31.3291;937.7817;;;;
2019/07/19 10:23:20;;;;;;;4.8;3.1;;;;;;;32.43;30.78027;937.8391;;;;
2019/07/19 10:25:47;;;;;;;6.6;3.2;;;;;;;32.71;29.94727;937.8362;;;;
2019/07/19 10:28:10;;;;;;;7.9;3.1;;;;;;;32.29;30.14746;937.7853;;;;
2019/07/19 10:30:35;;;;;;;5.5;3.2;;;;;;;32.24;30.5752;937.812;;;;
2019/07/19 10:33:22;;;;;;;5.2;3.3;;;;;;;31.8;29.97168;937.8262;;;;
2019/07/19 10:35:54;;;;;;;5.6;3.3;;;;;;;31.66;31.69922;937.7797;;;;
2019/07/19 10:38:13;;;;;;;5.4;3.3;;;;;;;32.04;30.70605;937.7637;;;;
2019/07/19 10:40:40;;;;;;;6.5;3.2;;;;;;;32.6;29.92773;937.7899;;;;
2019/07/19 10:42:59;;;;;;;6.8;3.3;;;;;;;32.17;29.12109;937.7926;;;;
2019/07/19 10:45:26;;;;;;;8.8;3.6;;;;;;;31.25;32.17188;937.8272;;;;
2019/07/19 10:47:50;;;;;;;7.1;3.6;;;;;;;30.97;33.08496;937.7453;;;;
2019/07/19 10:50:27;;;;;;;7;3.4;;;;;;;30.66;33.43262;937.7744;;;;
2019/07/19 10:52:54;;;;;;;5.8;3.5;;;;;;;30.65;33.89844;937.7704;;;;
2019/07/19 10:55:19;;;;;;;5.9;3.4;;;;;;;30.58;33.58203;937.682;;;;
2019/07/19 10:57:56;;;;;;;6.5;3.4;;;;;;;30.61;34.03809;937.7122;;;;
2019/07/19 11:00:20;;;;;;;7.1;3.7;;;;;;;30.64;33.80176;937.7718;;;;
2019/07/19 11:02:46;;;;;;;7.6;3.7;;;;;;;30.55;33.83105;937.7402;;;;
2019/07/19 11:05:17;;;;;;;5.8;3.6;;;;;;;30.31;35.12598;937.8078;;;;
2019/07/19 11:07:52;;;;;;;7.4;3.5;;;;;;;30.87;33.47266;937.7445;;;;
2019/07/19 11:10:16;;;;;;;11;3.6;;;;;;;31.23;32.93652;937.7651;;;;
2019/07/19 11:12:43;;;;;;;6.8;3.5;;;;;;;31.7;33.09082;937.6937;;;;
2019/07/19 11:15:12;;;;;;;6.5;3.3;;;;;;;32.05;32.94824;937.6568;;;;
2019/07/19 11:17:40;;;;;;;4.7;3.3;;;;;;;31.61;32.52148;937.5953;;;;
2019/07/19 11:20:06;;;;;;;14.5;4;;;;;;;31.51;33.28027;937.6714;;;;
2019/07/19 11:22:35;;;;;;;8.5;3.6;;;;;;;31.47;32.72656;937.6295;;;;
2019/07/19 11:25:03;;;;;;;10.3;3.6;;;;;;;31.38;33.92871;937.6365;;;;
2019/07/19 11:27:35;;;;;;;10.8;3.3;;;;;;;31.2;33.90332;937.6127;;;;
2019/07/19 11:30:03;;;;;;;5.2;3.3;;;;;;;31.2;33.85547;937.5824;;;;
2019/07/19 11:32:30;;;;;;;11.1;3.5;;;;;;;31.55;33.41504;937.5986;;;;
2019/07/19 11:35:01;;;;;;;7.2;3.8;;;;;;;31.84;32.36914;937.5637;;;;
2019/07/19 11:37:25;;;;;;;6.6;3.4;;;;;;;31.74;32.98535;937.5552;;;;
2019/07/19 11:39:53;;;;;;;7.7;3.4;;;;;;;32.06;32.60156;937.5275;;;;
2019/07/19 11:42:19;;;;;;;10.6;3.5;;;;;;;32.18;31.45898;937.4972;;;;
2019/07/19 11:44:53;;;;;;;7.9;3.5;;;;;;;32.46;32.60645;937.5514;;;;
2019/07/19 11:47:27;;;;;;;5.4;3.4;;;;;;;32.43;31.32031;937.5264;;;;
2019/07/19 11:49:54;;;;;;;8.5;3.5;;;;;;;32.48;31.28809;937.4827;;;;
2019/07/19 11:52:36;;;;;;;10;3.7;;;;;;;32.43;32.31543;937.5621;;;;
2019/07/19 11:55:03;;;;;;;5.2;3.4;;;;;;;31.85;33.28125;937.5005;;;;
2019/07/19 11:57:29;;;;;;;6.7;3.4;;;;;;;32.2;32.13184;937.4666;;;;
2019/07/19 11:59:55;;;;;;;7.6;3.5;;;;;;;32.49;31.98438;937.5286;;;;
2019/07/19 12:02:29;;;;;;;5.8;3.2;;;;;;;32.46;30.54297;937.4723;;;;
2019/07/19 12:05:02;;;;;;;8.5;3.4;;;;;;;32.11;31.63379;937.4307;;;;
2019/07/19 12:07:26;;;;;;;6.5;3.5;;;;;;;32.08;32.68652;937.427;;;;
2019/07/19 12:09:56;;;;;;;6.2;3.4;;;;;;;32.35;31.65039;937.4272;;;;
2019/07/19 12:12:21;;;;;;;7;3.5;;;;;;;32.79;31.84961;937.3666;;;;
2019/07/19 12:14:49;;;;;;;10.1;3.8;;;;;;;32.87;31.65137;937.3925;;;;
2019/07/19 12:17:13;;;;;;;5.1;3.4;;;;;;;32.37;31.66504;937.2462;;;;
2019/07/19 12:19:38;;;;;;;8.6;3.7;;;;;;;32.04;32.00098;937.2626;;;;
2019/07/19 12:22:04;;;;;;;6.3;3.7;;;;;;;31.59;32.65137;937.3005;;;;
2019/07/19 12:24:35;;;;;;;5.9;3.9;;;;;;;31.12;33.66992;937.3405;;;;
2019/07/19 12:27:03;;;;;;;8.4;3.6;;;;;;;30.67;35.24902;937.3428;;;;
2019/07/19 12:29:29;;;;;;;8;3.8;;;;;;;30.52;35.03516;937.3865;;;;
2019/07/19 12:31:57;;;;;;;8.8;3.4;;;;;;;30.3;35.6748;937.5029;;;;
2019/07/19 12:34:24;;;;;;;9.3;3.7;;;;;;;30.12;35.02832;937.473;;;;
2019/07/19 12:36:55;;;;;;;5.2;3.7;;;;;;;29.91;35.96582;937.4967;;;;
2019/07/19 12:39:21;;;;;;;13.9;4.1;;;;;;;29.42;36.85742;937.4005;;;;
2019/07/19 12:41:47;;;;;;;8;4;;;;;;;29.46;36.76465;937.3813;;;;
2019/07/19 12:44:19;;;;;;;8;3.6;;;;;;;29.97;36.74707;937.3625;;;;
2019/07/19 12:46:51;;;;;;;7.1;3.8;;;;;;;30.64;36.64551;937.3747;;;;
2019/07/19 12:49:15;;;;;;;8.1;3.7;;;;;;;31.32;35.49219;937.3881;;;;
2019/07/19 12:51:45;;;;;;;5.8;3.5;;;;;;;31.77;34.17383;937.3652;;;;
2019/07/19 12:54:10;;;;;;;6.4;3.5;;;;;;;32.02;32.47949;937.3497;;;;
2019/07/19 12:56:45;;;;;;;17.1;4.3;;;;;;;32.2;31.89258;937.365;;;;
2019/07/19 12:59:09;;;;;;;5.9;3.4;;;;;;;31.39;33.31836;937.3639;;;;
2019/07/19 13:01:37;;;;;;;7.2;3.6;;;;;;;31.96;33.07324;937.2778;;;;
2019/07/19 13:04:11;;;;;;;7.6;3.8;;;;;;;32.02;32.8623;937.3102;;;;
2019/07/19 13:06:39;;;;;;;9.7;3.7;;;;;;;31.94;32.65332;937.3254;;;;
2019/07/19 13:09:04;;;;;;;5.8;3.5;;;;;;;31.88;32.66016;937.3855;;;;
2019/07/19 13:11:33;;;;;;;8.8;3.6;;;;;;;31.75;32.79492;937.3284;;;;
2019/07/19 13:14:00;;;;;;;8.1;3.9;;;;;;;31.14;34.36523;937.3733;;;;
2019/07/19 13:16:27;;;;;;;7.1;3.7;;;;;;;31.16;33.56543;937.3652;;;;
2019/07/19 13:18:55;;;;;;;8.5;4;;;;;;;31.38;33.03125;937.418;;;;
2019/07/19 13:21:21;;;;;;;9.3;4.1;;;;;;;31.74;34.15918;937.3708;;;;
2019/07/19 13:23:45;;;;;;;10.9;3.8;;;;;;;31.71;32.78027;937.3497;;;;
2019/07/19 13:26:12;;;;;;;5.9;3.6;;;;;;;31.92;32.36328;937.4088;;;;
2019/07/19 13:28:40;;;;;;;6.5;3.7;;;;;;;31.84;32.78906;937.4014;;;;
2019/07/19 13:31:13;;;;;;;11.7;3.9;;;;;;;31.8;34.06836;937.4572;;;;
2019/07/19 13:33:48;;;;;;;10.8;4;;;;;;;31.87;33.46289;937.4304;;;;
2019/07/19 13:36:06;;;;;;;10.5;3.7;;;;;;;31.31;33.93555;937.4606;;;;
2019/07/19 13:38:35;;;;;;;6.5;3.7;;;;;;;30.95;34.57715;937.4994;;;;
2019/07/19 13:41:03;;;;;;;7.2;4;;;;;;;30.68;35.08301;937.4639;;;;
2019/07/19 13:43:25;;;;;;;6.6;3.8;;;;;;;30.52;34.89258;937.543;;;;
2019/07/19 13:45:53;;;;;;;9.8;4.1;;;;;;;30.42;35.38574;937.5655;;;;
2019/07/19 13:48:26;;;;;;;9.9;4.1;;;;;;;30.24;36.20703;937.5492;;;;
2019/07/19 13:50:54;;;;;;;7.2;4;;;;;;;29.91;37.44629;937.5703;;;;
2019/07/19 13:53:22;;;;;;;8;4.3;;;;;;;29.99;37.98926;937.5438;;;;
2019/07/19 13:55:45;;;;;;;8.3;4.2;;;;;;;29.77;36.62305;937.5256;;;;
2019/07/19 13:58:10;;;;;;;7.1;4;;;;;;;29.64;37.62598;937.5298;;;;
2019/07/19 14:00:42;;;;;;;9.9;4.3;;;;;;;29.36;37.66211;937.5422;;;;
2019/07/19 14:03:11;;;;;;;8;4.5;;;;;;;29.32;38.36133;937.5934;;;;
2019/07/19 14:05:35;;;;;;;7.5;4.3;;;;;;;29.31;38.21777;937.5344;;;;
2019/07/19 14:08:04;;;;;;;5.4;4;;;;;;;29.26;39.17773;937.499;;;;
2019/07/19 14:10:27;;;;;;;10.4;4.4;;;;;;;29;39.42969;937.4944;;;;
2019/07/19 14:12:56;;;;;;;7.3;4.2;;;;;;;28.94;40.41309;937.43;;;;
2019/07/19 14:15:24;;;;;;;5.3;4.3;;;;;;;29.52;39.82129;937.4495;;;;
2019/07/19 14:17:50;;;;;;;7.7;4.3;;;;;;;29.67;39.8584;937.4102;;;;
2019/07/19 14:20:18;;;;;;;7.5;4.2;;;;;;;30.29;38.44434;937.4701;;;;
2019/07/19 14:22:41;;;;;;;7.4;3.9;;;;;;;30.3;37.97949;937.3845;;;;
2019/07/19 14:25:10;;;;;;;11.1;4.3;;;;;;;29.66;38.49805;937.3826;;;;
2019/07/19 14:27:32;;;;;;;7.1;4;;;;;;;30.06;38.8418;937.397;;;;
2019/07/19 14:29:56;;;;;;;6.7;3.9;;;;;;;30.3;37.32227;937.4069;;;;
2019/07/19 14:32:22;;;;;;;8.1;3.9;;;;;;;30.39;36.76855;937.3079;;;;
2019/07/19 14:34:53;;;;;;;8.9;4.2;;;;;;;30.44;36.86816;937.4131;;;;
2019/07/19 14:37:19;;;;;;;8.8;4.1;;;;;;;30.09;36.93555;937.4744;;;;
2019/07/19 14:39:51;;;;;;;8.7;4.1;;;;;;;29.6;38.24219;937.3654;;;;
2019/07/19 14:42:21;;;;;;;7.2;4;;;;;;;29.27;38.61914;937.3835;;;;
2019/07/19 14:44:51;;;;;;;10.3;4.1;;;;;;;29.06;38.17285;937.3398;;;;
2019/07/19 14:47:15;;;;;;;7.2;4.2;;;;;;;29.02;38.66992;937.4208;;;;
2019/07/19 14:49:41;;;;;;;9;4.1;;;;;;;28.79;38.41211;937.3412;;;;
2019/07/19 14:52:14;;;;;;;7;4.1;;;;;;;29.19;38.78027;937.374;;;;
2019/07/19 14:54:38;;;;;;;7.2;4.3;;;;;;;29.27;36.83203;937.3875;;;;
2019/07/19 14:57:19;;;;;;;7.7;4.4;;;;;;;29.05;37.99316;937.3635;;;;
2019/07/19 14:59:41;;;;;;;6.7;4;;;;;;;29.26;37.47461;937.3586;;;;
2019/07/19 15:02:14;;;;;;;6;3.6;;;;;;;29.29;38.03613;937.3848;;;;
2019/07/19 15:04:37;;;;;;;6;4.2;;;;;;;29.12;38.85645;937.3176;;;;
2019/07/19 15:07:05;;;;;;;7.2;4.4;;;;;;;28.58;38.06152;937.3065;;;;
2019/07/19 15:09:27;;;;;;;8.3;4.4;;;;;;;28.4;40.0791;937.3411;;;;
2019/07/19 15:12:07;;;;;;;8.4;4.6;;;;;;;28.2;39.47852;937.349;;;;
2019/07/19 17:14:51;;;;;;;7;4.2;;;;;;;27.13;46.45117;937.1316;;;;
2019/07/19 17:17:16;;;;;;;7.1;5.2;;;;;;;27.02;47.28125;937.2664;;;;
2019/07/19 17:19:41;;;;;;;7.9;5;;;;;;;26.92;45.91895;937.209;;;;
2019/07/19 17:22:06;;;;;;;8.9;5.6;;;;;;;26.91;46.30957;937.171;;;;